sensor_id;sensor_type;location;lat;lon;timestamp;noise_LAeq;noise_LA_min;noise_LA_max;noise_LA01;noise_LA95
37163;Laerm;23057;48.554;14.454;2022-08-11T00:02:03;42.67;35.66;57.62;;
37163;Laerm;23057;48.554;14.454;2022-08-11T00:04:36;50.65;41.46;64.82;;
37163;Laerm;23057;48.554;14.454;2022-08-11T00:07:09;45.83;37.32;61.62;;
37163;Laerm;23057;48.554;14.454;2022-08-11T00:09:41;42.54;37.12;53.22;;
37163;Laerm;23057;48.554;14.454;2022-08-11T00:12:15;41.30;37.70;51.18;;
37163;Laerm;23057;48.554;14.454;2022-08-11T00:14:58;41.27;38.21;45.20;;
37163;Laerm;23057;48.554;14.454;2022-08-11T00:17:32;41.53;38.37;44.27;;
37163;Laerm;23057;48.554;14.454;2022-08-11T00:20:10;51.26;39.92;62.22;;
37163;Laerm;23057;48.554;14.454;2022-08-11T00:22:44;48.09;37.70;64.15;;
37163;Laerm;23057;48.554;14.454;2022-08-11T00:25:19;49.93;37.88;63.10;;
37163;Laerm;23057;48.554;14.454;2022-08-11T00:27:51;44.15;37.88;59.36;;
37163;Laerm;23057;48.554;14.454;2022-08-11T00:30:22;51.17;38.67;64.19;;
37163;Laerm;23057;48.554;14.454;2022-08-11T00:32:58;50.59;39.08;67.42;;
37163;Laerm;23057;48.554;14.454;2022-08-11T00:35:30;44.60;39.21;55.94;;
37163;Laerm;23057;48.554;14.454;2022-08-11T00:38:03;41.67;38.21;47.02;;
37163;Laerm;23057;48.554;14.454;2022-08-11T00:40:43;43.27;37.70;55.41;;
37163;Laerm;23057;48.554;14.454;2022-08-11T00:46:11;43.11;38.95;53.55;;
37163;Laerm;23057;48.554;14.454;2022-08-11T01:03:34;44.55;38.37;57.86;;
37163;Laerm;23057;48.554;14.454;2022-08-11T01:16:55;47.28;35.66;63.66;;
37163;Laerm;23057;48.554;14.454;2022-08-11T01:24:50;49.61;39.46;63.52;;
37163;Laerm;23057;48.554;14.454;2022-08-11T01:28:06;44.07;39.70;55.53;;
37163;Laerm;23057;48.554;14.454;2022-08-11T01:31:19;42.74;39.58;48.94;;
37163;Laerm;23057;48.554;14.454;2022-08-11T01:47:38;43.09;37.88;54.85;;
37163;Laerm;23057;48.554;14.454;2022-08-11T01:53:46;48.45;39.58;63.55;;
37163;Laerm;23057;48.554;14.454;2022-08-11T01:56:39;50.07;38.67;64.87;;
37163;Laerm;23057;48.554;14.454;2022-08-11T01:59:36;48.65;38.52;61.36;;
37163;Laerm;23057;48.554;14.454;2022-08-11T02:05:59;51.09;39.70;67.42;;
37163;Laerm;23057;48.554;14.454;2022-08-11T02:08:46;42.66;38.21;56.21;;
37163;Laerm;23057;48.554;14.454;2022-08-11T02:11:30;43.39;38.95;58.96;;
37163;Laerm;23057;48.554;14.454;2022-08-11T02:17:15;47.30;39.34;63.57;;
37163;Laerm;23057;48.554;14.454;2022-08-11T02:20:19;50.44;40.13;67.14;;
37163;Laerm;23057;48.554;14.454;2022-08-11T02:23:21;50.63;39.46;64.21;;
37163;Laerm;23057;48.554;14.454;2022-08-11T02:29:26;50.33;40.80;66.03;;
37163;Laerm;23057;48.554;14.454;2022-08-11T02:32:19;53.40;40.89;66.78;;
37163;Laerm;23057;48.554;14.454;2022-08-11T02:35:22;47.52;39.70;63.34;;
37163;Laerm;23057;48.554;14.454;2022-08-11T02:41:38;48.57;41.75;60.98;;
37163;Laerm;23057;48.554;14.454;2022-08-11T02:47:09;47.16;40.71;63.30;;
37163;Laerm;23057;48.554;14.454;2022-08-11T02:49:58;55.04;42.09;68.82;;
37163;Laerm;23057;48.554;14.454;2022-08-11T02:56:05;54.37;40.80;68.45;;
37163;Laerm;23057;48.554;14.454;2022-08-11T02:59:05;49.97;40.43;63.21;;
37163;Laerm;23057;48.554;14.454;2022-08-11T03:02:15;50.40;40.43;64.82;;
37163;Laerm;23057;48.554;14.454;2022-08-11T03:08:46;45.14;39.46;57.93;;
37163;Laerm;23057;48.554;14.454;2022-08-11T03:11:42;49.31;40.43;61.47;;
37163;Laerm;23057;48.554;14.454;2022-08-11T03:14:48;50.39;40.43;64.86;;
37163;Laerm;23057;48.554;14.454;2022-08-11T03:20:41;49.74;41.53;62.64;;
37163;Laerm;23057;48.554;14.454;2022-08-11T03:26:37;54.26;42.59;68.67;;
37163;Laerm;23057;48.554;14.454;2022-08-11T03:29:33;47.90;41.89;61.23;;
37163;Laerm;23057;48.554;14.454;2022-08-11T03:32:30;51.42;41.75;67.79;;
37163;Laerm;23057;48.554;14.454;2022-08-11T03:35:04;51.85;43.14;66.82;;
37163;Laerm;23057;48.554;14.454;2022-08-11T03:37:59;49.60;42.53;63.52;;
37163;Laerm;23057;48.554;14.454;2022-08-11T03:40:50;52.64;41.75;67.44;;
37163;Laerm;23057;48.554;14.454;2022-08-11T03:47:52;54.10;41.89;74.32;;
37163;Laerm;23057;48.554;14.454;2022-08-11T03:53:59;51.97;42.53;67.91;;
37163;Laerm;23057;48.554;14.454;2022-08-11T04:03:33;45.49;41.53;58.80;;
37163;Laerm;23057;48.554;14.454;2022-08-11T04:25:01;53.23;44.23;64.95;;
37163;Laerm;23057;48.554;14.454;2022-08-11T04:33:48;52.07;42.53;66.02;;
37163;Laerm;23057;48.554;14.454;2022-08-11T04:49:25;54.53;43.76;66.73;;
37163;Laerm;23057;48.554;14.454;2022-08-11T04:56:01;51.60;43.29;65.29;;
37163;Laerm;23057;48.554;14.454;2022-08-11T04:59:29;53.80;42.65;66.71;;
37163;Laerm;23057;48.554;14.454;2022-08-11T05:17:10;52.78;42.03;66.98;;
37163;Laerm;23057;48.554;14.454;2022-08-11T05:19:59;56.15;43.34;69.08;;
37163;Laerm;23057;48.554;14.454;2022-08-11T05:22:50;50.87;42.41;66.35;;
37163;Laerm;23057;48.554;14.454;2022-08-11T05:26:00;57.22;43.29;71.48;;
37163;Laerm;23057;48.554;14.454;2022-08-11T05:29:01;53.93;42.03;68.50;;
37163;Laerm;23057;48.554;14.454;2022-08-11T05:31:58;52.43;41.61;65.80;;
37163;Laerm;23057;48.554;14.454;2022-08-11T05:34:54;54.67;43.49;69.43;;
37163;Laerm;23057;48.554;14.454;2022-08-11T05:40:07;56.12;41.89;72.46;;
37163;Laerm;23057;48.554;14.454;2022-08-11T05:43:00;57.63;43.14;74.58;;
37163;Laerm;23057;48.554;14.454;2022-08-11T05:46:00;50.71;43.94;62.67;;
37163;Laerm;23057;48.554;14.454;2022-08-11T05:48:51;56.75;43.90;69.13;;
37163;Laerm;23057;48.554;14.454;2022-08-11T05:51:42;52.15;43.44;67.96;;
37163;Laerm;23057;48.554;14.454;2022-08-11T05:54:33;54.51;43.09;66.53;;
37163;Laerm;23057;48.554;14.454;2022-08-11T05:57:27;59.56;42.47;71.86;;
37163;Laerm;23057;48.554;14.454;2022-08-11T06:00:06;48.87;41.61;60.32;;
37163;Laerm;23057;48.554;14.454;2022-08-11T06:02:43;55.59;42.93;70.50;;
37163;Laerm;23057;48.554;14.454;2022-08-11T06:05:16;54.46;42.93;69.87;;
37163;Laerm;23057;48.554;14.454;2022-08-11T06:07:48;56.37;42.29;69.27;;
37163;Laerm;23057;48.554;14.454;2022-08-11T06:10:35;51.32;43.04;65.61;;
37163;Laerm;23057;48.554;14.454;2022-08-11T06:13:07;55.92;43.24;72.82;;
37163;Laerm;23057;48.554;14.454;2022-08-11T06:15:47;52.34;42.36;68.25;;
37163;Laerm;23057;48.554;14.454;2022-08-11T06:18:20;51.67;43.29;66.24;;
37163;Laerm;23057;48.554;14.454;2022-08-11T06:20:54;54.92;41.53;71.45;;
37163;Laerm;23057;48.554;14.454;2022-08-11T06:23:31;55.60;42.82;68.40;;
37163;Laerm;23057;48.554;14.454;2022-08-11T06:26:09;50.89;43.46;63.25;;
37163;Laerm;23057;48.554;14.454;2022-08-11T06:28:43;55.68;42.88;71.96;;
37163;Laerm;23057;48.554;14.454;2022-08-11T06:31:21;51.46;42.47;65.33;;
37163;Laerm;23057;48.554;14.454;2022-08-11T06:34:18;54.01;43.14;66.87;;
37163;Laerm;23057;48.554;14.454;2022-08-11T06:37:59;55.60;43.46;71.82;;
37163;Laerm;23057;48.554;14.454;2022-08-11T06:40:12;58.49;44.45;73.54;;
37163;Laerm;23057;48.554;14.454;2022-08-11T06:43:05;57.73;44.58;74.83;;
37163;Laerm;23057;48.554;14.454;2022-08-11T06:46:00;54.74;45.57;68.54;;
37163;Laerm;23057;48.554;14.454;2022-08-11T06:48:34;57.15;46.05;71.47;;
37163;Laerm;23057;48.554;14.454;2022-08-11T06:51:08;51.97;45.11;69.64;;
37163;Laerm;23057;48.554;14.454;2022-08-11T06:53:48;56.43;44.07;70.58;;
37163;Laerm;23057;48.554;14.454;2022-08-11T06:56:27;58.28;44.65;74.01;;
37163;Laerm;23057;48.554;14.454;2022-08-11T06:59:19;50.65;44.80;64.62;;
37163;Laerm;23057;48.554;14.454;2022-08-11T07:02:24;56.05;45.36;69.17;;
37163;Laerm;23057;48.554;14.454;2022-08-11T07:05:21;58.92;47.76;70.31;;
37163;Laerm;23057;48.554;14.454;2022-08-11T07:08:12;58.40;44.69;69.12;;
37163;Laerm;23057;48.554;14.454;2022-08-11T07:14:09;57.24;44.19;71.70;;
37163;Laerm;23057;48.554;14.454;2022-08-11T07:17:00;59.96;44.65;71.90;;
37163;Laerm;23057;48.554;14.454;2022-08-11T07:19:31;56.14;44.65;71.10;;
37163;Laerm;23057;48.554;14.454;2022-08-11T07:22:23;58.62;44.65;73.08;;
37163;Laerm;23057;48.554;14.454;2022-08-11T07:25:15;56.40;45.60;71.64;;
37163;Laerm;23057;48.554;14.454;2022-08-11T07:28:23;61.53;44.03;81.21;;
37163;Laerm;23057;48.554;14.454;2022-08-11T07:31:41;58.62;44.31;73.92;;
37163;Laerm;23057;48.554;14.454;2022-08-11T07:34:21;54.86;44.11;68.71;;
37163;Laerm;23057;48.554;14.454;2022-08-11T07:37:00;56.48;43.94;71.89;;
37163;Laerm;23057;48.554;14.454;2022-08-11T07:39:35;52.77;43.68;67.00;;
37163;Laerm;23057;48.554;14.454;2022-08-11T07:42:13;53.40;43.99;67.74;;
37163;Laerm;23057;48.554;14.454;2022-08-11T07:44:46;59.15;43.72;74.53;;
37163;Laerm;23057;48.554;14.454;2022-08-11T07:47:36;57.84;44.76;77.28;;
37163;Laerm;23057;48.554;14.454;2022-08-11T07:50:28;58.12;45.39;71.57;;
37163;Laerm;23057;48.554;14.454;2022-08-11T07:53:20;56.80;44.58;76.14;;
37163;Laerm;23057;48.554;14.454;2022-08-11T07:55:55;59.95;46.84;79.81;;
37163;Laerm;23057;48.554;14.454;2022-08-11T07:58:28;62.32;45.51;78.76;;
37163;Laerm;23057;48.554;14.454;2022-08-11T08:01:24;62.55;46.62;79.39;;
37163;Laerm;23057;48.554;14.454;2022-08-11T08:04:17;60.68;45.54;78.58;;
37163;Laerm;23057;48.554;14.454;2022-08-11T08:07:06;55.61;44.83;73.17;;
37163;Laerm;23057;48.554;14.454;2022-08-11T08:09:56;63.23;44.90;84.27;;
37163;Laerm;23057;48.554;14.454;2022-08-11T08:12:45;62.84;44.69;85.11;;
37163;Laerm;23057;48.554;14.454;2022-08-11T08:15:35;58.01;44.80;78.52;;
37163;Laerm;23057;48.554;14.454;2022-08-11T08:18:26;61.33;46.10;80.95;;
37163;Laerm;23057;48.554;14.454;2022-08-11T08:20:57;64.84;45.54;85.41;;
37163;Laerm;23057;48.554;14.454;2022-08-11T08:23:45;63.89;47.08;80.75;;
37163;Laerm;23057;48.554;14.454;2022-08-11T08:26:19;62.76;46.45;80.93;;
37163;Laerm;23057;48.554;14.454;2022-08-11T08:29:08;68.05;45.99;86.16;;
37163;Laerm;23057;48.554;14.454;2022-08-11T08:32:00;65.50;45.51;85.31;;
37163;Laerm;23057;48.554;14.454;2022-08-11T08:34:34;65.23;46.66;83.01;;
37163;Laerm;23057;48.554;14.454;2022-08-11T08:37:05;65.19;45.48;91.31;;
37163;Laerm;23057;48.554;14.454;2022-08-11T08:39:37;63.61;45.20;82.10;;
37163;Laerm;23057;48.554;14.454;2022-08-11T08:42:11;62.54;45.33;83.37;;
37163;Laerm;23057;48.554;14.454;2022-08-11T08:44:46;60.96;45.77;80.61;;
37163;Laerm;23057;48.554;14.454;2022-08-11T08:47:21;63.02;45.23;80.28;;
37163;Laerm;23057;48.554;14.454;2022-08-11T08:50:03;60.65;46.82;82.25;;
37163;Laerm;23057;48.554;14.454;2022-08-11T08:52:39;61.54;46.30;80.82;;
37163;Laerm;23057;48.554;14.454;2022-08-11T08:55:17;60.75;44.95;79.34;;
37163;Laerm;23057;48.554;14.454;2022-08-11T08:57:53;60.71;44.69;78.87;;
37163;Laerm;23057;48.554;14.454;2022-08-11T09:00:24;63.70;44.39;84.76;;
37163;Laerm;23057;48.554;14.454;2022-08-11T09:02:59;60.59;44.07;76.63;;
37163;Laerm;23057;48.554;14.454;2022-08-11T09:05:31;65.05;47.12;82.32;;
37163;Laerm;23057;48.554;14.454;2022-08-11T09:08:03;61.12;45.80;79.00;;
37163;Laerm;23057;48.554;14.454;2022-08-11T09:10:35;60.11;45.69;75.94;;
37163;Laerm;23057;48.554;14.454;2022-08-11T09:13:07;63.76;45.69;86.67;;
37163;Laerm;23057;48.554;14.454;2022-08-11T09:15:38;62.76;47.08;84.13;;
37163;Laerm;23057;48.554;14.454;2022-08-11T09:18:11;61.83;45.86;81.62;;
37163;Laerm;23057;48.554;14.454;2022-08-11T09:20:42;63.11;47.53;83.42;;
37163;Laerm;23057;48.554;14.454;2022-08-11T09:23:15;64.72;46.57;80.54;;
37163;Laerm;23057;48.554;14.454;2022-08-11T09:26:05;64.15;44.27;81.03;;
37163;Laerm;23057;48.554;14.454;2022-08-11T09:28:58;54.94;45.17;77.82;;
37163;Laerm;23057;48.554;14.454;2022-08-11T09:31:31;55.59;44.62;71.86;;
37163;Laerm;23057;48.554;14.454;2022-08-11T09:34:05;55.63;44.31;71.33;;
37163;Laerm;23057;48.554;14.454;2022-08-11T09:36:39;51.92;43.58;71.69;;
37163;Laerm;23057;48.554;14.454;2022-08-11T09:39:31;58.03;45.36;72.85;;
37163;Laerm;23057;48.554;14.454;2022-08-11T09:42:25;57.15;43.90;72.83;;
37163;Laerm;23057;48.554;14.454;2022-08-11T09:45:19;53.74;43.77;74.59;;
37163;Laerm;23057;48.554;14.454;2022-08-11T09:47:50;62.47;46.87;86.17;;
37163;Laerm;23057;48.554;14.454;2022-08-11T09:50:21;60.49;44.03;80.90;;
37163;Laerm;23057;48.554;14.454;2022-08-11T09:52:53;58.12;45.57;76.18;;
37163;Laerm;23057;48.554;14.454;2022-08-11T09:55:25;59.37;44.83;81.50;;
37163;Laerm;23057;48.554;14.454;2022-08-11T09:57:56;62.05;45.23;82.51;;
37163;Laerm;23057;48.554;14.454;2022-08-11T10:00:48;60.67;44.80;76.65;;
37163;Laerm;23057;48.554;14.454;2022-08-11T10:03:25;64.19;45.11;85.86;;
37163;Laerm;23057;48.554;14.454;2022-08-11T10:06:02;68.83;47.06;87.80;;
37163;Laerm;23057;48.554;14.454;2022-08-11T10:08:53;66.88;45.86;84.45;;
37163;Laerm;23057;48.554;14.454;2022-08-11T10:11:27;63.74;45.27;81.12;;
37163;Laerm;23057;48.554;14.454;2022-08-11T10:13:58;62.37;46.66;80.88;;
37163;Laerm;23057;48.554;14.454;2022-08-11T10:16:49;57.28;44.97;77.81;;
37163;Laerm;23057;48.554;14.454;2022-08-11T10:19:21;63.93;46.57;81.08;;
37163;Laerm;23057;48.554;14.454;2022-08-11T10:21:54;66.23;45.57;87.40;;
37163;Laerm;23057;48.554;14.454;2022-08-11T10:24:44;60.76;45.33;78.07;;
37163;Laerm;23057;48.554;14.454;2022-08-11T10:27:48;62.38;45.01;83.24;;
37163;Laerm;23057;48.554;14.454;2022-08-11T10:30:28;57.66;44.76;79.11;;
37163;Laerm;23057;48.554;14.454;2022-08-11T10:33:19;56.82;44.51;75.20;;
37163;Laerm;23057;48.554;14.454;2022-08-11T10:36:08;63.83;46.95;85.11;;
37163;Laerm;23057;48.554;14.454;2022-08-11T10:38:39;64.68;44.89;86.27;;
37163;Laerm;23057;48.554;14.454;2022-08-11T10:41:10;61.49;46.28;80.67;;
37163;Laerm;23057;48.554;14.454;2022-08-11T10:44:04;58.52;45.30;77.40;;
37163;Laerm;23057;48.554;14.454;2022-08-11T10:46:37;64.41;45.91;87.96;;
37163;Laerm;23057;48.554;14.454;2022-08-11T10:49:29;58.24;44.01;77.12;;
37163;Laerm;23057;48.554;14.454;2022-08-11T10:52:01;63.91;46.30;84.39;;
37163;Laerm;23057;48.554;14.454;2022-08-11T10:54:51;58.77;44.73;76.88;;
37163;Laerm;23057;48.554;14.454;2022-08-11T10:57:42;54.28;44.49;66.97;;
37163;Laerm;23057;48.554;14.454;2022-08-11T11:00:32;62.27;45.51;80.43;;
37163;Laerm;23057;48.554;14.454;2022-08-11T11:03:05;58.92;45.57;79.38;;
37163;Laerm;23057;48.554;14.454;2022-08-11T11:05:39;63.44;45.17;81.96;;
37163;Laerm;23057;48.554;14.454;2022-08-11T11:08:14;53.89;44.47;66.59;;
37163;Laerm;23057;48.554;14.454;2022-08-11T11:11:06;54.44;44.31;76.26;;
37163;Laerm;23057;48.554;14.454;2022-08-11T11:13:38;57.98;44.47;72.78;;
37163;Laerm;23057;48.554;14.454;2022-08-11T11:16:30;57.61;45.45;70.64;;
37163;Laerm;23057;48.554;14.454;2022-08-11T11:19:22;57.50;45.20;73.66;;
37163;Laerm;23057;48.554;14.454;2022-08-11T11:21:56;54.01;44.62;69.50;;
37163;Laerm;23057;48.554;14.454;2022-08-11T11:25:07;56.53;44.43;70.01;;
37163;Laerm;23057;48.554;14.454;2022-08-11T11:28:37;55.57;44.07;70.47;;
37163;Laerm;23057;48.554;14.454;2022-08-11T11:37:11;57.16;44.39;82.86;;
37163;Laerm;23057;48.554;14.454;2022-08-11T11:39:44;53.79;44.58;70.66;;
37163;Laerm;23057;48.554;14.454;2022-08-11T11:42:17;55.09;44.07;71.25;;
37163;Laerm;23057;48.554;14.454;2022-08-11T11:44:49;51.02;43.81;64.01;;
37163;Laerm;23057;48.554;14.454;2022-08-11T11:47:20;59.88;44.83;76.50;;
37163;Laerm;23057;48.554;14.454;2022-08-11T11:49:53;57.22;44.80;73.18;;
37163;Laerm;23057;48.554;14.454;2022-08-11T11:52:25;53.81;45.33;63.27;;
37163;Laerm;23057;48.554;14.454;2022-08-11T11:54:58;59.69;44.65;76.03;;
37163;Laerm;23057;48.554;14.454;2022-08-11T11:57:30;52.76;44.69;65.18;;
37163;Laerm;23057;48.554;14.454;2022-08-11T12:00:21;52.08;44.01;63.10;;
37163;Laerm;23057;48.554;14.454;2022-08-11T12:03:12;65.14;43.68;92.62;;
37163;Laerm;23057;48.554;14.454;2022-08-11T12:05:44;65.23;47.06;86.71;;
37163;Laerm;23057;48.554;14.454;2022-08-11T12:08:15;61.82;46.23;78.68;;
37163;Laerm;23057;48.554;14.454;2022-08-11T12:10:52;61.13;48.54;79.94;;
37163;Laerm;23057;48.554;14.454;2022-08-11T12:13:49;55.81;44.31;68.17;;
37163;Laerm;23057;48.554;14.454;2022-08-11T12:16:23;55.34;44.43;69.04;;
37163;Laerm;23057;48.554;14.454;2022-08-11T12:18:59;52.18;44.03;65.11;;
37163;Laerm;23057;48.554;14.454;2022-08-11T12:21:30;67.28;46.25;86.54;;
37163;Laerm;23057;48.554;14.454;2022-08-11T12:24:02;63.58;44.87;84.92;;
37163;Laerm;23057;48.554;14.454;2022-08-11T12:26:52;60.40;45.23;76.78;;
37163;Laerm;23057;48.554;14.454;2022-08-11T12:29:43;54.92;44.43;68.10;;
37163;Laerm;23057;48.554;14.454;2022-08-11T12:32:15;57.26;43.54;75.41;;
37163;Laerm;23057;48.554;14.454;2022-08-11T12:34:49;58.03;44.35;74.89;;
37163;Laerm;23057;48.554;14.454;2022-08-11T12:37:29;57.28;43.63;75.46;;
37163;Laerm;23057;48.554;14.454;2022-08-11T12:40:08;53.76;44.19;65.40;;
37163;Laerm;23057;48.554;14.454;2022-08-11T12:43:03;59.67;45.57;73.72;;
37163;Laerm;23057;48.554;14.454;2022-08-11T12:45:59;56.15;44.31;69.74;;
37163;Laerm;23057;48.554;14.454;2022-08-11T12:48:35;61.26;45.01;76.89;;
37163;Laerm;23057;48.554;14.454;2022-08-11T12:51:32;53.93;44.07;73.71;;
37163;Laerm;23057;48.554;14.454;2022-08-11T12:57:41;60.72;44.76;80.17;;
37163;Laerm;23057;48.554;14.454;2022-08-11T13:00:33;59.50;44.83;78.25;;
37163;Laerm;23057;48.554;14.454;2022-08-11T13:03:23;66.86;45.91;87.33;;
37163;Laerm;23057;48.554;14.454;2022-08-11T13:06:13;53.81;44.47;67.21;;
37163;Laerm;23057;48.554;14.454;2022-08-11T13:08:45;62.90;45.39;78.93;;
37163;Laerm;23057;48.554;14.454;2022-08-11T13:11:18;55.77;44.69;71.40;;
37163;Laerm;23057;48.554;14.454;2022-08-11T13:14:08;55.93;43.55;79.56;;
37163;Laerm;23057;48.554;14.454;2022-08-11T13:16:39;60.49;45.69;78.81;;
37163;Laerm;23057;48.554;14.454;2022-08-11T13:19:30;62.21;45.42;82.26;;
37163;Laerm;23057;48.554;14.454;2022-08-11T13:22:02;56.52;44.83;72.26;;
37163;Laerm;23057;48.554;14.454;2022-08-11T13:24:35;51.06;43.68;65.50;;
37163;Laerm;23057;48.554;14.454;2022-08-11T13:27:07;58.80;45.45;73.69;;
37163;Laerm;23057;48.554;14.454;2022-08-11T13:29:41;57.79;45.42;74.21;;
37163;Laerm;23057;48.554;14.454;2022-08-11T13:32:14;58.87;44.23;78.69;;
37163;Laerm;23057;48.554;14.454;2022-08-11T13:34:46;59.65;44.51;74.55;;
37163;Laerm;23057;48.554;14.454;2022-08-11T13:37:19;56.90;43.99;74.17;;
37163;Laerm;23057;48.554;14.454;2022-08-11T13:39:50;53.83;43.63;68.63;;
37163;Laerm;23057;48.554;14.454;2022-08-11T13:42:21;54.67;44.03;68.04;;
37163;Laerm;23057;48.554;14.454;2022-08-11T13:44:52;62.80;46.87;82.04;;
37163;Laerm;23057;48.554;14.454;2022-08-11T13:47:26;63.48;45.57;80.83;;
37163;Laerm;23057;48.554;14.454;2022-08-11T13:49:57;61.02;46.30;75.77;;
37163;Laerm;23057;48.554;14.454;2022-08-11T13:52:29;56.89;45.42;73.18;;
37163;Laerm;23057;48.554;14.454;2022-08-11T13:55:00;62.01;44.65;81.02;;
37163;Laerm;23057;48.554;14.454;2022-08-11T13:57:32;62.34;45.72;75.65;;
37163;Laerm;23057;48.554;14.454;2022-08-11T14:00:08;58.25;45.63;78.68;;
37163;Laerm;23057;48.554;14.454;2022-08-11T14:02:43;56.12;43.39;68.13;;
37163;Laerm;23057;48.554;14.454;2022-08-11T14:05:19;58.72;45.33;77.22;;
37163;Laerm;23057;48.554;14.454;2022-08-11T14:07:58;66.45;47.54;84.88;;
37163;Laerm;23057;48.554;14.454;2022-08-11T14:10:33;58.44;44.54;76.96;;
37163;Laerm;23057;48.554;14.454;2022-08-11T14:13:15;62.24;45.30;82.70;;
37163;Laerm;23057;48.554;14.454;2022-08-11T14:16:11;60.81;45.57;78.03;;
37163;Laerm;23057;48.554;14.454;2022-08-11T14:18:47;58.48;44.69;76.54;;
37163;Laerm;23057;48.554;14.454;2022-08-11T14:21:23;61.79;46.57;81.63;;
37163;Laerm;23057;48.554;14.454;2022-08-11T14:24:15;63.21;46.02;87.90;;
37163;Laerm;23057;48.554;14.454;2022-08-11T14:26:49;69.99;46.82;91.12;;
37163;Laerm;23057;48.554;14.454;2022-08-11T14:29:25;63.15;46.43;81.45;;
37163;Laerm;23057;48.554;14.454;2022-08-11T14:32:02;60.61;45.33;79.74;;
37163;Laerm;23057;48.554;14.454;2022-08-11T14:34:37;57.99;45.77;76.96;;
37163;Laerm;23057;48.554;14.454;2022-08-11T14:37:21;59.20;45.30;77.77;;
37163;Laerm;23057;48.554;14.454;2022-08-11T14:39:57;61.76;46.28;76.73;;
37163;Laerm;23057;48.554;14.454;2022-08-11T14:42:28;61.31;46.25;74.44;;
37163;Laerm;23057;48.554;14.454;2022-08-11T14:45:18;54.78;44.47;71.81;;
37163;Laerm;23057;48.554;14.454;2022-08-11T14:48:09;63.27;45.11;79.64;;
37163;Laerm;23057;48.554;14.454;2022-08-11T14:50:40;63.44;46.84;81.64;;
37163;Laerm;23057;48.554;14.454;2022-08-11T14:53:12;62.21;47.26;79.80;;
37163;Laerm;23057;48.554;14.454;2022-08-11T14:55:45;65.28;47.65;84.99;;
37163;Laerm;23057;48.554;14.454;2022-08-11T14:58:36;66.42;45.54;86.94;;
37163;Laerm;23057;48.554;14.454;2022-08-11T15:01:07;59.75;46.97;74.59;;
37163;Laerm;23057;48.554;14.454;2022-08-11T15:03:59;63.25;47.54;83.55;;
37163;Laerm;23057;48.554;14.454;2022-08-11T15:06:30;63.23;46.33;83.19;;
37163;Laerm;23057;48.554;14.454;2022-08-11T15:09:04;59.86;47.06;76.17;;
37163;Laerm;23057;48.554;14.454;2022-08-11T15:11:36;61.87;43.14;77.17;;
37163;Laerm;23057;48.554;14.454;2022-08-11T15:14:26;55.76;42.76;71.30;;
37163;Laerm;23057;48.554;14.454;2022-08-11T15:17:17;60.77;45.33;77.44;;
37163;Laerm;23057;48.554;14.454;2022-08-11T15:19:49;61.13;44.11;78.29;;
37163;Laerm;23057;48.554;14.454;2022-08-11T15:22:39;61.69;44.69;79.93;;
37163;Laerm;23057;48.554;14.454;2022-08-11T15:25:30;63.39;43.99;88.13;;
37163;Laerm;23057;48.554;14.454;2022-08-11T15:28:05;57.15;42.35;77.21;;
37163;Laerm;23057;48.554;14.454;2022-08-11T15:30:58;56.52;42.59;78.33;;
37163;Laerm;23057;48.554;14.454;2022-08-11T15:33:53;58.97;43.24;74.68;;
37163;Laerm;23057;48.554;14.454;2022-08-11T15:36:47;59.07;42.47;78.34;;
37163;Laerm;23057;48.554;14.454;2022-08-11T15:42:48;67.47;44.07;84.28;;
37163;Laerm;23057;48.554;14.454;2022-08-11T15:45:39;61.88;43.54;80.16;;
37163;Laerm;23057;48.554;14.454;2022-08-11T15:48:34;59.90;43.72;78.51;;
37163;Laerm;23057;48.554;14.454;2022-08-11T15:51:20;57.76;42.53;73.06;;
37163;Laerm;23057;48.554;14.454;2022-08-11T15:53:58;58.55;39.81;74.54;;
37163;Laerm;23057;48.554;14.454;2022-08-11T15:56:36;57.65;42.22;80.44;;
37163;Laerm;23057;48.554;14.454;2022-08-11T15:59:11;54.81;43.14;71.57;;
37163;Laerm;23057;48.554;14.454;2022-08-11T16:02:03;57.66;41.68;78.69;;
37163;Laerm;23057;48.554;14.454;2022-08-11T16:04:55;59.73;42.59;83.85;;
37163;Laerm;23057;48.554;14.454;2022-08-11T16:07:31;57.11;41.68;76.41;;
37163;Laerm;23057;48.554;14.454;2022-08-11T16:10:08;61.53;42.29;85.52;;
37163;Laerm;23057;48.554;14.454;2022-08-11T16:13:02;60.92;41.68;83.30;;
37163;Laerm;23057;48.554;14.454;2022-08-11T16:15:40;68.79;40.53;93.73;;
37163;Laerm;23057;48.554;14.454;2022-08-11T16:18:37;65.85;40.98;89.90;;
37163;Laerm;23057;48.554;14.454;2022-08-11T16:21:23;56.12;41.06;77.36;;
37163;Laerm;23057;48.554;14.454;2022-08-11T16:23:57;52.30;40.03;74.36;;
37163;Laerm;23057;48.554;14.454;2022-08-11T16:26:31;57.34;42.00;71.95;;
37163;Laerm;23057;48.554;14.454;2022-08-11T16:29:09;60.93;43.58;76.98;;
37163;Laerm;23057;48.554;14.454;2022-08-11T16:31:41;58.72;42.09;76.14;;
37163;Laerm;23057;48.554;14.454;2022-08-11T16:34:14;54.88;41.61;72.45;;
37163;Laerm;23057;48.554;14.454;2022-08-11T16:37:05;63.16;42.13;79.10;;
37163;Laerm;23057;48.554;14.454;2022-08-11T16:39:54;57.44;44.97;70.21;;
37163;Laerm;23057;48.554;14.454;2022-08-11T16:42:25;58.35;42.29;74.74;;
37163;Laerm;23057;48.554;14.454;2022-08-11T16:45:14;62.34;44.80;79.71;;
37163;Laerm;23057;48.554;14.454;2022-08-11T16:48:06;61.06;43.94;74.42;;
37163;Laerm;23057;48.554;14.454;2022-08-11T16:50:38;59.46;42.71;74.17;;
37163;Laerm;23057;48.554;14.454;2022-08-11T16:53:11;57.23;42.22;75.20;;
37163;Laerm;23057;48.554;14.454;2022-08-11T16:55:45;52.43;40.89;66.80;;
37163;Laerm;23057;48.554;14.454;2022-08-11T16:58:20;55.93;39.21;71.93;;
37163;Laerm;23057;48.554;14.454;2022-08-11T17:01:13;56.02;40.13;69.90;;
37163;Laerm;23057;48.554;14.454;2022-08-11T17:03:58;53.38;40.53;68.22;;
37163;Laerm;23057;48.554;14.454;2022-08-11T17:06:49;54.37;39.58;65.06;;
37163;Laerm;23057;48.554;14.454;2022-08-11T17:09:41;50.74;39.08;62.41;;
37163;Laerm;23057;48.554;14.454;2022-08-11T17:12:37;54.63;40.62;68.19;;
37163;Laerm;23057;48.554;14.454;2022-08-11T17:15:28;55.52;40.80;81.01;;
37163;Laerm;23057;48.554;14.454;2022-08-11T17:18:21;56.90;39.92;71.78;;
37163;Laerm;23057;48.554;14.454;2022-08-11T17:21:18;55.26;42.35;69.24;;
37163;Laerm;23057;48.554;14.454;2022-08-11T17:23:54;52.89;42.71;63.55;;
37163;Laerm;23057;48.554;14.454;2022-08-11T17:26:32;55.39;40.80;68.27;;
37163;Laerm;23057;48.554;14.454;2022-08-11T17:29:31;51.07;41.61;65.23;;
37163;Laerm;23057;48.554;14.454;2022-08-11T17:32:07;53.42;41.89;63.41;;
37163;Laerm;23057;48.554;14.454;2022-08-11T17:35:04;52.68;41.68;65.52;;
37163;Laerm;23057;48.554;14.454;2022-08-11T17:38:20;52.58;41.22;66.42;;
37163;Laerm;23057;48.554;14.454;2022-08-11T17:41:00;51.49;41.22;68.42;;
37163;Laerm;23057;48.554;14.454;2022-08-11T17:43:53;50.60;41.82;61.97;;
37163;Laerm;23057;48.554;14.454;2022-08-11T17:46:45;53.07;41.61;62.61;;
37163;Laerm;23057;48.554;14.454;2022-08-11T17:49:37;53.95;41.82;65.32;;